Time;durP1;ratioP1;P1;durP2;ratioP2;P2;SDS_P1;SDS_P2;PMS_P1;PMS_P2;Temp;Humidity;BMP_temperature;BMP_pressure;BME280_temperature;BME280_humidity;BME280_pressure;Samples;Min_cycle;Max_cycle;Signal;HPM_P1;HPM_P2
2023/04/30 00:03:10;;;;;;;;;;;21.90;42.10;;;;;;20839416;28;19928;-56
2023/04/30 00:13:12;;;;;;;;;;;21.70;42.60;;;;;;20838819;28;20273;-56
2023/04/30 00:23:14;;;;;;;;;;;21.60;43.00;;;;;;20835473;28;19921;-56
2023/04/30 00:33:15;;;;;;;;;;;21.40;43.00;;;;;;20835542;28;19928;-57
2023/04/30 00:43:17;;;;;;;;;;;21.30;43.30;;;;;;20835955;28;20481;-56
2023/04/30 00:53:18;;;;;;;;;;;21.20;44.10;;;;;;20833933;28;19932;-56
2023/04/30 01:03:21;;;;;;;;;;;21.10;45.00;;;;;;20832869;28;20008;-57
2023/04/30 01:13:31;;;;;;;;;;;20.80;44.80;;;;;;20833423;28;19921;-56
2023/04/30 01:23:50;;;;;;;;;;;20.70;45.00;;;;;;20831358;28;20037;-58
2023/04/30 01:33:52;;;;;;;;;;;20.40;45.60;;;;;;20830851;28;19928;-56
2023/04/30 01:44:08;;;;;;;;;;;20.30;45.80;;;;;;20831564;28;19921;-56
2023/04/30 01:54:29;;;;;;;;;;;20.20;47.50;;;;;;20829766;28;19929;-58
2023/04/30 02:04:31;;;;;;;;;;;20.30;49.00;;;;;;20830891;28;20354;-56
2023/04/30 02:14:32;;;;;;;;;;;20.20;49.40;;;;;;20828935;28;19931;-56
2023/04/30 02:24:34;;;;;;;;;;;20.10;48.90;;;;;;20828887;28;19929;-57
2023/04/30 02:34:35;;;;;;;;;;;20.00;48.60;;;;;;20829714;28;19925;-56
2023/04/30 02:44:36;;;;;;;;;;;19.90;51.30;;;;;;20831874;28;19928;-56
2023/04/30 02:54:38;;;;;;;;;;;19.70;52.00;;;;;;20844642;28;19924;-56
2023/04/30 03:04:39;;;;;;;;;;;19.60;52.60;;;;;;20843614;28;19928;-57
2023/04/30 03:14:40;;;;;;;;;;;19.40;53.20;;;;;;20842934;28;20267;-56
2023/04/30 03:24:42;;;;;;;;;;;19.30;54.00;;;;;;20842577;28;19921;-56
2023/04/30 03:34:43;;;;;;;;;;;19.10;54.70;;;;;;20841846;28;19921;-55
2023/04/30 03:44:44;;;;;;;;;;;18.90;55.30;;;;;;20841138;28;19975;-56
2023/04/30 03:54:45;;;;;;;;;;;18.80;55.90;;;;;;20838676;28;19921;-55
2023/04/30 04:04:47;;;;;;;;;;;18.70;55.70;;;;;;20839532;28;19983;-56
2023/04/30 04:14:48;;;;;;;;;;;18.40;55.80;;;;;;20838709;28;20310;-56
2023/04/30 04:24:50;;;;;;;;;;;18.50;55.90;;;;;;20836689;28;19925;-57
2023/04/30 04:34:53;;;;;;;;;;;18.30;56.00;;;;;;20836092;28;19921;-55
2023/04/30 04:44:54;;;;;;;;;;;18.30;55.90;;;;;;20836100;28;20252;-55
2023/04/30 04:54:56;;;;;;;;;;;18.20;55.90;;;;;;20835855;28;19921;-55
2023/04/30 05:04:58;;;;;;;;;;;18.10;56.30;;;;;;20834461;28;19925;-56
2023/04/30 05:14:59;;;;;;;;;;;18.10;56.30;;;;;;20832301;28;19921;-57
2023/04/30 05:25:00;;;;;;;;;;;17.90;56.10;;;;;;20833376;28;19928;-56
2023/04/30 05:35:02;;;;;;;;;;;17.90;56.00;;;;;;20831325;28;19927;-55
2023/04/30 05:45:03;;;;;;;;;;;17.70;55.90;;;;;;20831894;28;20385;-56
2023/04/30 05:55:05;;;;;;;;;;;17.80;55.90;;;;;;20831229;28;19921;-55
2023/04/30 06:05:06;;;;;;;;;;;17.90;55.60;;;;;;20829758;28;19938;-56
2023/04/30 06:15:08;;;;;;;;;;;18.00;55.00;;;;;;20829030;28;19952;-57
2023/04/30 06:25:09;;;;;;;;;;;18.10;54.70;;;;;;20842047;28;19921;-56
2023/04/30 06:35:10;;;;;;;;;;;18.20;53.80;;;;;;20845215;28;19921;-56
2023/04/30 06:45:14;;;;;;;;;;;18.50;52.40;;;;;;20845476;28;20297;-56
2023/04/30 06:55:15;;;;;;;;;;;18.60;52.30;;;;;;20845340;28;19921;-57
2023/04/30 07:05:17;;;;;;;;;;;18.70;51.20;;;;;;20844331;28;19928;-57
2023/04/30 07:15:18;;;;;;;;;;;19.00;50.90;;;;;;20842133;28;19925;-57
2023/04/30 07:25:20;;;;;;;;;;;19.40;49.80;;;;;;20840839;28;19921;-56
2023/04/30 07:35:21;;;;;;;;;;;19.60;49.10;;;;;;20841093;28;19921;-56
2023/04/30 07:45:22;;;;;;;;;;;19.90;47.80;;;;;;20840261;28;19928;-57
2023/04/30 07:55:24;;;;;;;;;;;20.10;47.50;;;;;;20838493;28;19921;-59
2023/04/30 08:05:27;;;;;;;;;;;20.50;46.30;;;;;;20837426;28;19921;-56
2023/04/30 08:15:28;;;;;;;;;;;20.50;46.20;;;;;;20836981;28;19931;-57
2023/04/30 08:25:30;;;;;;;;;;;20.70;45.70;;;;;;20837196;28;19928;-56
2023/04/30 08:35:32;;;;;;;;;;;20.90;45.00;;;;;;20835321;28;20007;-56
2023/04/30 08:45:34;;;;;;;;;;;21.20;45.10;;;;;;20834256;28;19929;-59
2023/04/30 08:55:37;;;;;;;;;;;21.20;44.40;;;;;;20834088;28;19928;-57
2023/04/30 09:05:39;;;;;;;;;;;21.30;44.50;;;;;;20833706;28;19932;-56
2023/04/30 09:15:40;;;;;;;;;;;21.40;43.70;;;;;;20832333;28;20018;-57
2023/04/30 09:25:42;;;;;;;;;;;21.70;43.20;;;;;;20832018;28;19921;-56
2023/04/30 09:35:43;;;;;;;;;;;22.00;42.50;;;;;;20831695;28;19921;-57
2023/04/30 09:45:47;;;;;;;;;;;22.20;41.80;;;;;;20831173;28;19921;-57
2023/04/30 09:55:49;;;;;;;;;;;22.40;41.80;;;;;;20830851;28;20305;-56
2023/04/30 10:05:51;;;;;;;;;;;22.50;41.80;;;;;;20830053;28;20389;-56
2023/04/30 10:15:57;;;;;;;;;;;22.70;40.80;;;;;;20827655;28;19929;-57
2023/04/30 10:25:59;;;;;;;;;;;22.80;40.80;;;;;;20828626;28;19933;-57
2023/04/30 10:36:07;;;;;;;;;;;23.00;39.90;;;;;;20828609;28;19928;-59
2023/04/30 10:46:08;;;;;;;;;;;22.80;39.30;;;;;;20826736;28;19979;-57
2023/04/30 10:56:10;;;;;;;;;;;22.90;39.60;;;;;;20827778;28;20259;-56
2023/04/30 11:06:12;;;;;;;;;;;23.10;39.10;;;;;;20831000;28;19920;-56
2023/04/30 11:16:16;;;;;;;;;;;23.30;38.00;;;;;;20839959;28;19921;-57
2023/04/30 11:26:18;;;;;;;;;;;23.40;37.50;;;;;;20839880;28;19928;-58
2023/04/30 11:36:20;;;;;;;;;;;23.50;37.20;;;;;;20840473;28;20434;-56
2023/04/30 11:46:22;;;;;;;;;;;23.60;37.10;;;;;;20838998;28;19925;-56
2023/04/30 11:56:24;;;;;;;;;;;23.70;36.30;;;;;;20837762;28;19928;-56
2023/04/30 12:06:27;;;;;;;;;;;24.10;35.80;;;;;;20837354;28;19920;-56
2023/04/30 12:16:38;;;;;;;;;;;24.20;35.30;;;;;;20834444;28;19929;-57
2023/04/30 12:26:40;;;;;;;;;;;24.30;34.70;;;;;;20835558;28;19921;-57
2023/04/30 12:36:42;;;;;;;;;;;24.40;34.70;;;;;;20835186;28;19928;-57
2023/04/30 12:46:45;;;;;;;;;;;24.50;33.80;;;;;;20834179;28;19921;-57
2023/04/30 12:57:00;;;;;;;;;;;24.40;34.00;;;;;;20834584;28;20382;-56
2023/04/30 13:07:02;;;;;;;;;;;24.60;33.40;;;;;;20834216;28;19921;-56
2023/04/30 13:17:05;;;;;;;;;;;24.70;33.80;;;;;;20833281;28;20382;-57
2023/04/30 13:27:06;;;;;;;;;;;25.10;33.20;;;;;;20832314;28;20365;-58
2023/04/30 13:37:08;;;;;;;;;;;25.10;33.20;;;;;;20832366;28;19943;-58
2023/04/30 13:47:10;;;;;;;;;;;25.10;33.40;;;;;;20830306;28;19994;-57
2023/04/30 13:57:11;;;;;;;;;;;25.40;32.90;;;;;;20829207;28;19921;-57
2023/04/30 14:07:12;;;;;;;;;;;25.60;33.00;;;;;;20830179;28;19921;-57
2023/04/30 14:17:14;;;;;;;;;;;25.60;32.40;;;;;;20829249;28;19928;-58
2023/04/30 14:27:15;;;;;;;;;;;25.80;31.70;;;;;;20830051;28;19968;-57
2023/04/30 14:37:17;;;;;;;;;;;25.80;32.00;;;;;;20828415;28;19921;-58
2023/04/30 14:47:19;;;;;;;;;;;25.90;32.50;;;;;;20843564;28;19921;-57
2023/04/30 14:57:22;;;;;;;;;;;25.90;32.20;;;;;;20844453;28;19927;-57
2023/04/30 15:07:23;;;;;;;;;;;25.90;31.40;;;;;;20842901;28;19928;-58
2023/04/30 15:17:25;;;;;;;;;;;26.10;31.00;;;;;;20842730;28;19921;-58
2023/04/30 15:27:26;;;;;;;;;;;26.10;31.40;;;;;;20841132;28;20015;-57
2023/04/30 15:37:27;;;;;;;;;;;26.00;31.80;;;;;;20841573;28;19921;-56
2023/04/30 15:47:29;;;;;;;;;;;26.10;31.60;;;;;;20840945;28;20027;-57
2023/04/30 15:57:30;;;;;;;;;;;26.10;31.60;;;;;;20839111;28;19940;-60
2023/04/30 16:07:31;;;;;;;;;;;25.80;31.80;;;;;;20836849;28;19921;-57
2023/04/30 16:17:33;;;;;;;;;;;25.80;32.10;;;;;;20836009;28;19979;-57
2023/04/30 16:27:35;;;;;;;;;;;25.70;31.70;;;;;;20835410;28;19943;-59
2023/04/30 16:37:36;;;;;;;;;;;25.70;31.30;;;;;;20834901;28;20385;-58
2023/04/30 16:47:38;;;;;;;;;;;25.70;31.20;;;;;;20833623;28;19928;-57
2023/04/30 16:57:40;;;;;;;;;;;25.60;31.20;;;;;;20833824;28;19924;-57
2023/04/30 17:07:42;;;;;;;;;;;25.60;30.80;;;;;;20833210;28;19928;-56
2023/04/30 17:17:43;;;;;;;;;;;25.50;30.60;;;;;;20832765;28;20298;-57
2023/04/30 17:27:45;;;;;;;;;;;25.40;29.50;;;;;;20832648;28;20388;-57
2023/04/30 17:37:46;;;;;;;;;;;25.30;29.20;;;;;;20831832;28;19921;-57
2023/04/30 17:47:48;;;;;;;;;;;25.20;28.90;;;;;;20831389;28;19925;-57
2023/04/30 17:57:49;;;;;;;;;;;25.00;29.60;;;;;;20831450;28;19925;-57
2023/04/30 18:07:50;;;;;;;;;;;24.90;29.60;;;;;;20830519;28;19924;-57
2023/04/30 18:17:52;;;;;;;;;;;24.70;29.40;;;;;;20836913;28;19921;-57
2023/04/30 18:27:53;;;;;;;;;;;24.70;29.20;;;;;;20846640;28;20016;-58
2023/04/30 18:37:55;;;;;;;;;;;24.60;29.10;;;;;;20846208;28;20382;-56
2023/04/30 18:47:56;;;;;;;;;;;24.40;29.20;;;;;;20845738;28;19925;-58
2023/04/30 18:57:58;;;;;;;;;;;24.20;29.30;;;;;;20844046;28;19921;-56
2023/04/30 19:07:59;;;;;;;;;;;24.10;29.50;;;;;;20841750;28;19925;-58
2023/04/30 19:18:00;;;;;;;;;;;24.00;30.10;;;;;;20840907;28;20061;-57
2023/04/30 19:28:02;;;;;;;;;;;23.70;30.50;;;;;;20839881;28;19921;-58
2023/04/30 19:38:03;;;;;;;;;;;23.60;30.70;;;;;;20838595;28;19921;-56
2023/04/30 19:48:05;;;;;;;;;;;23.20;31.30;;;;;;20839139;28;19921;-58
2023/04/30 19:58:06;;;;;;;;;;;23.10;31.30;;;;;;20840149;28;19956;-57
2023/04/30 20:08:08;;;;;;;;;;;22.90;32.10;;;;;;20839045;28;19925;-58
2023/04/30 20:18:09;;;;;;;;;;;22.60;32.90;;;;;;20839307;28;19931;-58
2023/04/30 20:28:14;;;;;;;;;;;22.40;33.20;;;;;;20837619;28;19920;-55
2023/04/30 20:38:15;;;;;;;;;;;22.10;33.30;;;;;;20836318;28;20027;-58
2023/04/30 20:48:16;;;;;;;;;;;22.00;33.00;;;;;;20836276;28;20411;-58
2023/04/30 20:58:18;;;;;;;;;;;21.80;32.30;;;;;;20835707;28;19921;-58
2023/04/30 21:08:19;;;;;;;;;;;21.70;32.10;;;;;;20834883;28;19928;-56
2023/04/30 21:18:20;;;;;;;;;;;21.50;33.00;;;;;;20833343;28;19921;-56
2023/04/30 21:28:21;;;;;;;;;;;21.40;35.00;;;;;;20833649;28;19928;-58
2023/04/30 21:38:22;;;;;;;;;;;21.20;37.60;;;;;;20833118;28;19974;-57
2023/04/30 21:48:24;;;;;;;;;;;21.00;38.40;;;;;;20832252;28;20389;-58
2023/04/30 21:58:25;;;;;;;;;;;20.70;38.70;;;;;;20831346;28;19943;-56
2023/04/30 22:08:26;;;;;;;;;;;20.70;38.60;;;;;;20830119;28;20016;-57
2023/04/30 22:18:28;;;;;;;;;;;20.50;38.60;;;;;;20830022;28;20301;-56
2023/04/30 22:28:29;;;;;;;;;;;20.30;39.00;;;;;;20830220;28;20394;-59
2023/04/30 22:38:31;;;;;;;;;;;20.10;39.10;;;;;;20830029;28;20398;-58
2023/04/30 22:48:33;;;;;;;;;;;19.90;39.50;;;;;;20829761;28;19925;-59
2023/04/30 22:58:34;;;;;;;;;;;19.80;39.80;;;;;;20829474;28;19927;-58
2023/04/30 23:08:35;;;;;;;;;;;19.70;40.20;;;;;;20843501;28;20389;-57
2023/04/30 23:18:36;;;;;;;;;;;19.60;40.40;;;;;;20842823;28;20271;-58
2023/04/30 23:28:37;;;;;;;;;;;19.40;40.40;;;;;;20842964;28;19966;-58
2023/04/30 23:38:39;;;;;;;;;;;19.40;40.50;;;;;;20840828;28;19975;-57
2023/04/30 23:48:41;;;;;;;;;;;19.30;40.70;;;;;;20841622;28;19920;-56
2023/04/30 23:58:42;;;;;;;;;;;19.10;40.80;;;;;;20841050;28;20356;-56
